CheckWX is a tool to help pilots better visualize weather data.  It is not intended as a substitute for an official pre-flight weather briefing.

07:27:50 UTC

WAQQ TAF
Juwata Airport
Juwata, Indonesia
TAF WAQQ 190500Z 1906/1918 18004KT 9999 SCT015 TEMPO 1909/1913 6000 -RA FEW015CB BKN016

Jun-19@
06:00 UTC

Jun-19 @ 06:00 UTC

Jun-19@
18:00 UTC

Jun-19 @ 18:00 UTC

TAF WAQQ 190500Z 1906/1918 18004KT 9999 SCT015
Wind
  • 180° at 4 KTS
Cloud Levels
  • Scattered at 1,500' AGL

Jun-19@
09:00 UTC

Jun-19 @ 09:00 UTC

Jun-19@
13:00 UTC

Jun-19 @ 13:00 UTC

TEMPO 1909/1913 6000 -RA FEW015CB BKN016

Temporary

Temporary Changes expected for less than half the time period

Conditions
Light Rain
Cloud Levels
  • Few at 1,500' AGL
  • Broken at 1,600' AGL